createdAt,value
2023-04-27T00:00:32.617Z,2.14
2023-04-27T00:01:32.634Z,2.18
2023-04-27T00:02:32.643Z,2.18
2023-04-27T00:03:32.682Z,2.18
2023-04-27T00:04:32.790Z,2.24
2023-04-27T00:05:32.679Z,2.20
2023-04-27T00:06:32.597Z,2.20
2023-04-27T00:07:32.587Z,2.24
2023-04-27T00:08:32.532Z,2.26
2023-04-27T00:09:32.539Z,2.25
2023-04-27T00:10:32.573Z,2.22
2023-04-27T00:11:32.703Z,2.28
2023-04-27T00:12:32.491Z,2.32
2023-04-27T00:13:32.492Z,2.32
2023-04-27T00:14:32.476Z,2.35
2023-04-27T00:15:32.458Z,2.38
2023-04-27T00:16:32.559Z,2.36
2023-04-27T00:17:32.499Z,2.39
2023-04-27T00:18:32.440Z,2.39
2023-04-27T00:19:32.431Z,2.44
2023-04-27T00:20:32.398Z,2.46
2023-04-27T00:21:32.456Z,2.51
2023-04-27T00:22:32.385Z,2.51
2023-04-27T00:23:32.373Z,2.54
2023-04-27T00:24:32.362Z,2.56
2023-04-27T00:25:32.391Z,2.54
2023-04-27T00:26:32.372Z,2.54
2023-04-27T00:27:32.370Z,2.56
2023-04-27T00:28:32.326Z,2.56
2023-04-27T00:29:32.313Z,2.57
2023-04-27T00:30:32.305Z,2.57
2023-04-27T00:31:32.318Z,2.60
2023-04-27T00:32:32.324Z,2.54
2023-04-27T00:33:32.261Z,2.53
2023-04-27T00:34:32.274Z,2.54
2023-04-27T00:35:32.254Z,2.54
2023-04-27T00:36:32.253Z,2.56
2023-04-27T00:37:32.248Z,2.54
2023-04-27T00:38:32.213Z,2.56
2023-04-27T00:39:32.232Z,2.53
2023-04-27T00:40:32.198Z,2.53
2023-04-27T00:41:32.210Z,2.53
2023-04-27T00:42:32.185Z,2.56
2023-04-27T00:43:32.168Z,2.56
2023-04-27T00:44:32.154Z,2.60
2023-04-27T00:45:32.187Z,2.61
2023-04-27T00:46:32.184Z,2.56
2023-04-27T00:47:32.166Z,2.57
2023-04-27T00:48:32.125Z,2.60
2023-04-27T00:49:32.109Z,2.61
2023-04-27T00:50:32.085Z,2.60
2023-04-27T00:51:32.194Z,2.61
2023-04-27T00:52:32.066Z,2.64
2023-04-27T00:53:32.065Z,2.61
2023-04-27T00:54:32.063Z,2.65
2023-04-27T00:55:32.044Z,2.65
2023-04-27T00:56:32.061Z,2.65
2023-04-27T00:57:32.060Z,2.62
2023-04-27T00:58:32.012Z,2.62
2023-04-27T00:59:32.002Z,2.60
2023-04-27T01:00:31.992Z,2.60
2023-04-27T01:01:32.036Z,2.57
2023-04-27T01:02:32.070Z,2.54
2023-04-27T01:03:32.020Z,2.53
2023-04-27T01:04:32.059Z,2.54
2023-04-27T01:05:32.657Z,2.51
2023-04-27T01:06:31.969Z,2.50
2023-04-27T01:07:31.912Z,2.51
2023-04-27T01:08:31.920Z,2.54
2023-04-27T01:09:31.899Z,2.60
2023-04-27T01:10:31.910Z,2.57
2023-04-27T01:11:31.901Z,2.60
2023-04-27T01:12:31.859Z,2.56
2023-04-27T01:13:31.877Z,2.53
2023-04-27T01:14:31.838Z,2.56
2023-04-27T01:15:31.835Z,2.56
2023-04-27T01:16:31.847Z,2.57
2023-04-27T01:17:31.841Z,2.57
2023-04-27T01:18:31.851Z,2.57
2023-04-27T01:19:31.787Z,2.60
2023-04-27T01:20:31.787Z,2.62
2023-04-27T01:21:31.803Z,2.62
2023-04-27T01:22:31.765Z,2.65
2023-04-27T01:23:31.747Z,2.65
2023-04-27T01:24:31.753Z,2.67
2023-04-27T01:25:31.734Z,2.67
2023-04-27T01:26:31.731Z,2.69
2023-04-27T01:27:31.715Z,2.67
2023-04-27T01:28:31.702Z,2.67
2023-04-27T01:29:31.682Z,2.67
2023-04-27T01:30:31.675Z,2.67
2023-04-27T01:31:31.712Z,2.67
2023-04-27T01:32:31.719Z,2.67
2023-04-27T01:33:31.648Z,2.69
2023-04-27T01:34:31.635Z,2.71
2023-04-27T01:35:31.631Z,2.71
2023-04-27T01:36:31.909Z,2.74
2023-04-27T01:37:31.627Z,2.75
2023-04-27T01:38:31.585Z,2.75
2023-04-27T01:39:31.588Z,2.79
2023-04-27T01:40:31.587Z,2.80
2023-04-27T01:41:31.581Z,2.82
2023-04-27T01:42:31.581Z,2.83
2023-04-27T01:43:31.555Z,2.83
2023-04-27T01:44:31.541Z,2.86
2023-04-27T01:45:31.520Z,2.87
2023-04-27T01:46:31.586Z,2.86
2023-04-27T01:47:31.526Z,2.92
2023-04-27T01:48:31.500Z,2.93
2023-04-27T01:49:31.502Z,2.93
2023-04-27T01:50:31.478Z,2.95
2023-04-27T01:51:31.489Z,2.98
2023-04-27T01:52:31.444Z,3.00
2023-04-27T01:53:31.449Z,3.03
2023-04-27T01:54:31.434Z,3.01
2023-04-27T01:55:31.433Z,3.00
2023-04-27T01:56:31.428Z,3.00
2023-04-27T01:57:31.421Z,2.97
2023-04-27T01:58:31.378Z,2.97
2023-04-27T01:59:31.390Z,2.97
2023-04-27T02:00:31.360Z,2.97
2023-04-27T02:01:31.522Z,2.93
2023-04-27T02:02:31.468Z,2.95
2023-04-27T02:03:31.467Z,2.92
2023-04-27T02:04:31.392Z,2.90
2023-04-27T02:05:31.332Z,2.92
2023-04-27T02:06:31.724Z,2.90
2023-04-27T02:07:31.315Z,2.89
2023-04-27T02:08:31.293Z,2.90
2023-04-27T02:09:31.483Z,2.92
2023-04-27T02:10:31.293Z,2.87
2023-04-27T02:11:31.277Z,2.89
2023-04-27T02:12:31.314Z,2.87
2023-04-27T02:13:31.235Z,2.90
2023-04-27T02:14:31.231Z,2.87
2023-04-27T02:15:31.219Z,2.86
2023-04-27T02:16:31.253Z,2.83
2023-04-27T02:17:31.261Z,2.83
2023-04-27T02:18:31.192Z,2.80
2023-04-27T02:19:31.200Z,2.83
2023-04-27T02:20:31.160Z,2.82
2023-04-27T02:21:31.217Z,2.83
2023-04-27T02:22:31.139Z,2.85
2023-04-27T02:23:31.174Z,2.87
2023-04-27T02:24:31.125Z,2.89
2023-04-27T02:25:31.129Z,2.92
2023-04-27T02:26:31.118Z,2.92
2023-04-27T02:27:31.098Z,2.92
2023-04-27T02:28:31.092Z,2.92
2023-04-27T02:29:31.071Z,2.95
2023-04-27T02:30:31.078Z,2.95
2023-04-27T02:31:31.118Z,2.97
2023-04-27T02:32:31.098Z,2.97
2023-04-27T02:33:31.041Z,2.98
2023-04-27T02:34:31.019Z,3.00
2023-04-27T02:35:31.009Z,3.03
2023-04-27T02:36:31.030Z,3.01
2023-04-27T02:37:31.023Z,3.01
2023-04-27T02:38:30.976Z,3.00
2023-04-27T02:39:30.969Z,3.03
2023-04-27T02:40:30.961Z,3.00
2023-04-27T02:41:30.971Z,3.00
2023-04-27T02:42:30.941Z,3.00
2023-04-27T02:43:30.931Z,2.98
2023-04-27T02:44:30.912Z,2.97
2023-04-27T02:45:30.954Z,2.97
2023-04-27T02:46:30.943Z,2.95
2023-04-27T02:47:30.898Z,2.98
2023-04-27T02:48:30.870Z,3.00
2023-04-27T02:49:30.902Z,3.00
2023-04-27T02:50:30.884Z,2.93
2023-04-27T02:51:30.855Z,2.95
2023-04-27T02:52:30.833Z,2.97
2023-04-27T02:53:30.824Z,2.90
2023-04-27T02:54:30.807Z,2.87
2023-04-27T02:55:30.811Z,2.89
2023-04-27T02:56:30.829Z,2.87
2023-04-27T02:57:30.771Z,2.89
2023-04-27T02:58:30.872Z,2.85
2023-04-27T02:59:30.761Z,2.83
2023-04-27T03:00:30.788Z,2.82
2023-04-27T03:01:30.773Z,2.80
2023-04-27T03:02:30.829Z,2.82
2023-04-27T03:03:30.908Z,2.83
2023-04-27T03:04:30.801Z,2.82
2023-04-27T03:05:30.699Z,2.83
2023-04-27T03:06:30.689Z,2.83
2023-04-27T03:07:30.675Z,2.86
2023-04-27T03:08:30.664Z,2.83
2023-04-27T03:09:30.646Z,2.82
2023-04-27T03:10:30.720Z,2.79
2023-04-27T03:11:30.711Z,2.79
2023-04-27T03:12:30.653Z,2.77
2023-04-27T03:13:30.615Z,2.77
2023-04-27T03:14:30.602Z,2.75
2023-04-27T03:15:30.590Z,2.77
2023-04-27T03:16:30.623Z,2.77
2023-04-27T03:17:30.584Z,2.77
2023-04-27T03:18:30.586Z,2.75
2023-04-27T03:19:30.545Z,2.75
2023-04-27T03:20:30.558Z,2.75
2023-04-27T03:21:30.536Z,2.75
2023-04-27T03:22:30.562Z,2.71
2023-04-27T03:23:30.518Z,2.69
2023-04-27T03:24:30.522Z,2.68
2023-04-27T03:25:30.488Z,2.68
2023-04-27T03:26:30.530Z,2.71
2023-04-27T03:27:30.460Z,2.67
2023-04-27T03:28:30.462Z,2.65
2023-04-27T03:29:30.445Z,2.60
2023-04-27T03:30:30.391Z,2.56
2023-04-27T03:31:30.429Z,2.56
2023-04-27T03:32:30.403Z,2.53
2023-04-27T03:33:30.403Z,2.50
2023-04-27T03:34:30.401Z,2.51
2023-04-27T03:35:30.411Z,2.53
2023-04-27T03:36:30.408Z,2.51
2023-04-27T03:37:30.319Z,2.51
2023-04-27T03:38:30.354Z,2.53
2023-04-27T03:39:30.311Z,2.53
2023-04-27T03:40:30.327Z,2.51
2023-04-27T03:41:30.277Z,2.51
2023-04-27T03:42:30.272Z,2.54
2023-04-27T03:43:30.241Z,2.53
2023-04-27T03:44:30.240Z,2.50
2023-04-27T03:45:30.231Z,2.47
2023-04-27T03:46:30.402Z,2.47
2023-04-27T03:47:30.209Z,2.42
2023-04-27T03:48:30.197Z,2.38
2023-04-27T03:49:30.205Z,2.38
2023-04-27T03:50:30.440Z,2.38
2023-04-27T03:51:30.174Z,2.33
2023-04-27T03:52:30.151Z,2.38
2023-04-27T03:53:30.137Z,2.35
2023-04-27T03:54:30.135Z,2.33
2023-04-27T03:55:30.134Z,2.33
2023-04-27T03:56:30.144Z,2.28
2023-04-27T03:57:30.104Z,2.29
2023-04-27T03:58:30.149Z,2.28
2023-04-27T03:59:30.096Z,2.25
2023-04-27T04:00:30.069Z,2.24
2023-04-27T04:01:30.097Z,2.17
2023-04-27T04:02:30.126Z,2.18
2023-04-27T04:03:30.233Z,2.17
2023-04-27T04:04:30.225Z,2.13
2023-04-27T04:05:30.028Z,2.08
2023-04-27T04:06:30.028Z,2.08
2023-04-27T04:07:29.997Z,2.10
2023-04-27T04:08:29.993Z,2.07
2023-04-27T04:09:30.003Z,2.06
2023-04-27T04:10:29.978Z,2.04
2023-04-27T04:11:30.001Z,2.06
2023-04-27T04:12:29.956Z,2.07
2023-04-27T04:13:29.929Z,2.10
2023-04-27T04:14:29.939Z,2.10
2023-04-27T04:15:29.931Z,2.13
2023-04-27T04:16:30.096Z,2.15
2023-04-27T04:17:29.943Z,2.15
2023-04-27T04:18:29.889Z,2.18
2023-04-27T04:19:29.906Z,2.13
2023-04-27T04:20:29.896Z,2.18
2023-04-27T04:21:29.876Z,2.26
2023-04-27T04:22:29.847Z,2.28
2023-04-27T04:23:29.844Z,2.31
2023-04-27T04:24:29.836Z,2.33
2023-04-27T04:25:29.814Z,2.35
2023-04-27T04:26:29.807Z,2.33
2023-04-27T04:27:29.826Z,2.35
2023-04-27T04:28:29.780Z,2.33
2023-04-27T04:29:29.763Z,2.36
2023-04-27T04:30:29.769Z,2.35
2023-04-27T04:31:29.967Z,2.39
2023-04-27T04:32:29.807Z,2.44
2023-04-27T04:33:29.731Z,2.50
2023-04-27T04:34:29.720Z,2.51
2023-04-27T04:35:29.703Z,2.56
2023-04-27T04:36:29.722Z,2.56
2023-04-27T04:37:29.693Z,2.57
2023-04-27T04:38:29.682Z,2.54
2023-04-27T04:39:29.662Z,2.60
2023-04-27T04:40:29.662Z,2.60
2023-04-27T04:41:29.682Z,2.61
2023-04-27T04:42:29.634Z,2.64
2023-04-27T04:43:29.637Z,2.65
2023-04-27T04:44:29.643Z,2.69
2023-04-27T04:45:29.617Z,2.75
2023-04-27T04:46:29.676Z,2.71
2023-04-27T04:47:29.608Z,2.82
2023-04-27T04:48:29.632Z,2.87
2023-04-27T04:49:29.564Z,2.92
2023-04-27T04:50:29.579Z,3.00
2023-04-27T04:51:29.576Z,3.03
2023-04-27T04:52:29.540Z,3.07
2023-04-27T04:53:29.527Z,3.07
2023-04-27T04:54:29.507Z,3.10
2023-04-27T04:55:29.500Z,3.18
2023-04-27T04:56:29.508Z,3.18
2023-04-27T04:57:29.494Z,3.22
2023-04-27T04:58:29.469Z,3.28
2023-04-27T04:59:31.510Z,3.31
2023-04-27T05:00:29.453Z,3.36
2023-04-27T05:01:29.484Z,3.40
2023-04-27T05:02:29.669Z,3.47
2023-04-27T05:03:29.587Z,3.47
2023-04-27T05:04:29.508Z,3.50
2023-04-27T05:05:29.396Z,3.55
2023-04-27T05:06:29.588Z,3.56
2023-04-27T05:07:29.414Z,3.63
2023-04-27T05:08:29.370Z,3.63
2023-04-27T05:09:29.371Z,3.66
2023-04-27T05:10:29.347Z,3.69
2023-04-27T05:11:29.341Z,3.73
2023-04-27T05:12:29.767Z,3.76
2023-04-27T05:13:29.316Z,3.80
2023-04-27T05:14:29.357Z,3.83
2023-04-27T05:15:29.300Z,3.80
2023-04-27T05:16:29.319Z,3.77
2023-04-27T05:17:29.352Z,3.81
2023-04-27T05:18:29.370Z,3.84
2023-04-27T05:19:29.252Z,3.88
2023-04-27T05:20:29.262Z,3.92
2023-04-27T05:21:29.226Z,3.96
2023-04-27T05:22:29.240Z,4.01
2023-04-27T05:23:29.220Z,4.01
2023-04-27T05:24:29.208Z,4.04
2023-04-27T05:25:29.195Z,4.04
2023-04-27T05:26:29.186Z,4.04
2023-04-27T05:27:29.180Z,4.06
2023-04-27T05:28:29.165Z,4.10
2023-04-27T05:29:29.218Z,4.14
2023-04-27T05:30:29.149Z,4.19
2023-04-27T05:31:29.195Z,4.24
2023-04-27T05:32:29.154Z,4.28
2023-04-27T05:33:29.116Z,4.32
2023-04-27T05:34:29.115Z,4.37
2023-04-27T05:35:29.086Z,4.34
2023-04-27T05:36:29.077Z,4.37
2023-04-27T05:37:29.161Z,4.38
2023-04-27T05:38:29.059Z,4.41
2023-04-27T05:39:29.045Z,4.45
2023-04-27T05:40:29.038Z,4.48
2023-04-27T05:41:29.044Z,4.45
2023-04-27T05:42:29.042Z,4.50
2023-04-27T05:43:29.007Z,4.53
2023-04-27T05:44:28.998Z,4.60
2023-04-27T05:45:29.031Z,4.67
2023-04-27T05:46:29.177Z,4.68
2023-04-27T05:47:29.351Z,4.74
2023-04-27T05:48:29.017Z,4.73
2023-04-27T05:49:28.981Z,4.63
2023-04-27T05:50:28.939Z,4.67
2023-04-27T05:51:28.912Z,4.74
2023-04-27T05:52:28.966Z,4.75
2023-04-27T05:53:28.937Z,4.84
2023-04-27T05:54:28.901Z,4.93
2023-04-27T05:55:28.883Z,4.97
2023-04-27T05:56:28.900Z,5.04
2023-04-27T05:57:28.899Z,5.12
2023-04-27T05:58:28.853Z,5.17
2023-04-27T05:59:28.844Z,5.23
2023-04-27T06:00:28.856Z,5.30
2023-04-27T06:01:28.826Z,5.36
2023-04-27T06:02:28.969Z,5.44
2023-04-27T06:03:29.138Z,5.50
2023-04-27T06:04:28.910Z,5.59
2023-04-27T06:05:28.873Z,5.71
2023-04-27T06:06:28.769Z,5.76
2023-04-27T06:07:28.768Z,5.87
2023-04-27T06:08:28.792Z,5.91
2023-04-27T06:09:28.734Z,6.02
2023-04-27T06:10:28.751Z,6.02
2023-04-27T06:11:28.787Z,6.02
2023-04-27T06:12:28.734Z,6.20
2023-04-27T06:13:28.688Z,6.22
2023-04-27T06:14:28.682Z,6.24
2023-04-27T06:15:28.673Z,6.26
2023-04-27T06:16:28.766Z,6.35
2023-04-27T06:17:28.703Z,6.49
2023-04-27T06:18:28.655Z,6.49
2023-04-27T06:19:28.620Z,6.59
2023-04-27T06:20:28.748Z,6.67
2023-04-27T06:21:28.610Z,6.67
2023-04-27T06:22:28.929Z,6.85
2023-04-27T06:23:28.615Z,6.99
2023-04-27T06:24:28.589Z,7.14
2023-04-27T06:25:28.579Z,7.32
2023-04-27T06:26:28.563Z,7.48
2023-04-27T06:27:28.910Z,7.73
2023-04-27T06:28:28.539Z,7.80
2023-04-27T06:29:28.526Z,8.00
2023-04-27T06:30:28.608Z,8.15
2023-04-27T06:31:28.528Z,8.31
2023-04-27T06:32:29.035Z,8.15
2023-04-27T06:33:28.553Z,8.18
2023-04-27T06:34:28.486Z,7.98
2023-04-27T06:35:28.467Z,8.18
2023-04-27T06:36:28.462Z,8.37
2023-04-27T06:37:28.522Z,8.52
2023-04-27T06:38:28.448Z,8.87
2023-04-27T06:39:28.440Z,9.50
2023-04-27T06:40:28.499Z,9.46
2023-04-27T06:41:28.398Z,9.62
2023-04-27T06:42:28.412Z,9.92
2023-04-27T06:43:28.390Z,9.98
2023-04-27T06:44:28.366Z,9.56
2023-04-27T06:45:28.350Z,9.91
2023-04-27T06:46:28.384Z,9.94
2023-04-27T06:47:28.349Z,9.95
2023-04-27T06:48:28.332Z,10.04
2023-04-27T06:49:28.320Z,10.79
2023-04-27T06:50:28.331Z,11.15
2023-04-27T06:51:28.290Z,11.47
2023-04-27T06:52:28.322Z,11.73
2023-04-27T06:53:28.278Z,11.83
2023-04-27T06:54:28.285Z,11.99
2023-04-27T06:55:28.248Z,12.72
2023-04-27T06:56:28.261Z,13.59
2023-04-27T06:57:28.331Z,14.07
2023-04-27T06:58:28.227Z,14.65
2023-04-27T06:59:28.377Z,14.72
2023-04-27T07:00:28.222Z,14.65
2023-04-27T07:01:28.220Z,14.59
2023-04-27T07:02:28.220Z,13.31
2023-04-27T07:03:28.253Z,12.90
2023-04-27T07:04:28.273Z,13.04
2023-04-27T07:05:28.147Z,13.30
2023-04-27T07:06:28.137Z,13.65
2023-04-27T07:07:28.162Z,14.11
2023-04-27T07:08:28.122Z,14.07
2023-04-27T07:09:28.156Z,13.71
2023-04-27T07:10:28.098Z,14.43
2023-04-27T07:11:28.084Z,14.11
2023-04-27T07:12:28.084Z,14.73
2023-04-27T07:13:28.059Z,15.04
2023-04-27T07:14:28.041Z,15.29
2023-04-27T07:15:28.046Z,14.79
2023-04-27T07:16:28.061Z,15.70
2023-04-27T07:17:28.201Z,16.47
2023-04-27T07:18:28.015Z,16.41
2023-04-27T07:19:28.003Z,15.62
2023-04-27T07:20:27.977Z,15.07
2023-04-27T07:21:27.988Z,15.03
2023-04-27T07:22:27.976Z,15.97
2023-04-27T07:23:27.963Z,16.49
2023-04-27T07:24:27.954Z,16.71
2023-04-27T07:25:27.942Z,16.02
2023-04-27T07:26:27.923Z,15.95
2023-04-27T07:27:27.972Z,16.65
2023-04-27T07:28:27.896Z,16.08
2023-04-27T07:29:27.900Z,15.94
2023-04-27T07:30:27.875Z,14.94
2023-04-27T07:31:27.896Z,14.69
2023-04-27T07:32:27.904Z,13.87
2023-04-27T07:33:27.886Z,13.81
2023-04-27T07:34:30.774Z,13.93
2023-04-27T07:35:27.894Z,13.96
2023-04-27T07:36:27.806Z,14.32
2023-04-27T07:37:27.828Z,14.60
2023-04-27T07:38:27.789Z,15.44
2023-04-27T07:39:27.788Z,15.76
2023-04-27T07:40:27.782Z,14.91
2023-04-27T07:41:27.904Z,15.43
2023-04-27T07:42:27.761Z,15.82
2023-04-27T07:43:27.744Z,16.46
2023-04-27T07:44:27.719Z,16.00
2023-04-27T07:45:27.753Z,15.61
2023-04-27T07:46:27.697Z,16.28
2023-04-27T07:47:27.714Z,17.12
2023-04-27T07:48:27.720Z,18.03
2023-04-27T07:49:27.732Z,18.83
2023-04-27T07:50:27.657Z,17.68
2023-04-27T07:51:27.660Z,16.84
2023-04-27T07:52:27.650Z,17.41
2023-04-27T07:53:27.634Z,18.07
2023-04-27T07:54:27.623Z,18.00
2023-04-27T07:55:27.631Z,18.95
2023-04-27T07:56:27.604Z,19.40
2023-04-27T07:57:28.140Z,19.96
2023-04-27T07:58:27.674Z,19.86
2023-04-27T07:59:27.562Z,18.93
2023-04-27T08:00:27.550Z,17.85
2023-04-27T08:01:27.549Z,17.11
2023-04-27T08:02:27.655Z,17.64
2023-04-27T08:03:27.659Z,16.99
2023-04-27T08:04:27.830Z,16.09
2023-04-27T08:05:27.959Z,14.47
2023-04-27T08:06:27.810Z,13.62
2023-04-27T08:07:28.143Z,13.03
2023-04-27T08:08:27.469Z,12.95
2023-04-27T08:09:27.462Z,13.09
2023-04-27T08:10:27.441Z,13.41
2023-04-27T08:11:27.455Z,13.31
2023-04-27T08:12:27.432Z,13.38
2023-04-27T08:13:27.420Z,13.41
2023-04-27T08:14:27.423Z,13.18
2023-04-27T08:15:27.422Z,12.95
2023-04-27T08:16:27.410Z,12.86
2023-04-27T08:17:27.396Z,12.79
2023-04-27T08:18:27.416Z,12.73
2023-04-27T08:19:27.384Z,12.68
2023-04-27T08:20:27.342Z,12.78
2023-04-27T08:21:27.326Z,12.87
2023-04-27T08:22:27.330Z,12.85
2023-04-27T08:23:27.310Z,12.85
2023-04-27T08:24:27.292Z,12.80
2023-04-27T08:25:27.340Z,12.76
2023-04-27T08:26:27.275Z,12.40
2023-04-27T08:27:27.290Z,12.04
2023-04-27T08:28:27.265Z,12.12
2023-04-27T08:29:28.864Z,12.94
2023-04-27T08:30:27.259Z,13.99
2023-04-27T08:31:27.258Z,13.77
2023-04-27T08:32:27.231Z,13.54
2023-04-27T08:33:27.234Z,13.59
2023-04-27T08:34:27.203Z,15.40
2023-04-27T08:35:27.183Z,16.20
2023-04-27T08:36:27.186Z,15.47
2023-04-27T08:37:27.196Z,15.09
2023-04-27T08:38:27.146Z,14.70
2023-04-27T08:39:27.148Z,14.44
2023-04-27T08:40:27.200Z,14.25
2023-04-27T08:41:27.134Z,14.14
2023-04-27T08:42:27.176Z,14.14
2023-04-27T08:43:27.100Z,14.37
2023-04-27T08:44:27.087Z,14.20
2023-04-27T08:45:27.153Z,14.17
2023-04-27T08:46:27.188Z,14.44
2023-04-27T08:47:39.069Z,14.68
2023-04-27T08:48:27.070Z,14.73
2023-04-27T08:49:27.114Z,16.50
2023-04-27T08:50:27.032Z,17.57
2023-04-27T08:51:27.023Z,17.72
2023-04-27T08:52:27.012Z,18.50
2023-04-27T08:53:27.033Z,19.31
2023-04-27T08:54:26.982Z,19.16
2023-04-27T08:55:26.973Z,19.74
2023-04-27T08:56:26.963Z,19.34
2023-04-27T08:57:26.987Z,19.19
2023-04-27T08:58:27.137Z,19.77
2023-04-27T08:59:27.011Z,20.69
2023-04-27T09:00:26.992Z,21.42
2023-04-27T09:01:26.910Z,21.66
2023-04-27T09:02:26.937Z,20.81
2023-04-27T09:03:27.021Z,20.95
2023-04-27T09:04:27.050Z,20.59
2023-04-27T09:05:26.949Z,20.11
2023-04-27T09:06:27.000Z,18.55
2023-04-27T09:07:28.515Z,16.35
2023-04-27T09:08:26.853Z,16.61
2023-04-27T09:09:26.835Z,17.16
2023-04-27T09:10:26.801Z,18.19
2023-04-27T09:11:26.797Z,19.33
2023-04-27T09:12:26.873Z,19.26
2023-04-27T09:13:26.822Z,19.56
2023-04-27T09:14:26.789Z,20.06
2023-04-27T09:15:26.754Z,18.29
2023-04-27T09:16:26.946Z,18.20
2023-04-27T09:17:26.780Z,19.07
2023-04-27T09:18:26.714Z,19.31
2023-04-27T09:19:26.762Z,19.77
2023-04-27T09:20:26.704Z,18.99
2023-04-27T09:21:26.708Z,16.97
2023-04-27T09:22:26.685Z,15.35
2023-04-27T09:23:26.674Z,15.15
2023-04-27T09:24:26.648Z,15.14
2023-04-27T09:25:26.656Z,15.47
2023-04-27T09:26:26.674Z,15.97
2023-04-27T09:27:26.651Z,16.29
2023-04-27T09:28:26.614Z,15.58
2023-04-27T09:29:26.612Z,15.00
2023-04-27T09:30:26.606Z,15.84
2023-04-27T09:31:26.633Z,16.33
2023-04-27T09:32:27.040Z,15.28
2023-04-27T09:33:26.594Z,13.79
2023-04-27T09:34:26.543Z,12.90
2023-04-27T09:35:26.556Z,12.39
2023-04-27T09:36:26.591Z,12.55
2023-04-27T09:37:26.542Z,12.98
2023-04-27T09:38:26.523Z,13.25
2023-04-27T09:39:26.522Z,13.47
2023-04-27T09:40:26.484Z,13.62
2023-04-27T09:41:26.484Z,14.25
2023-04-27T09:42:26.488Z,15.11
2023-04-27T09:43:26.454Z,14.60
2023-04-27T09:44:26.459Z,14.94
2023-04-27T09:45:26.479Z,15.15
2023-04-27T09:46:26.595Z,15.00
2023-04-27T09:47:26.470Z,14.84
2023-04-27T09:48:26.392Z,14.05
2023-04-27T09:49:26.489Z,13.68
2023-04-27T09:50:26.385Z,14.08
2023-04-27T09:51:26.425Z,14.53
2023-04-27T09:52:26.376Z,14.14
2023-04-27T09:53:26.395Z,13.46
2023-04-27T09:54:26.330Z,13.54
2023-04-27T09:55:26.341Z,14.70
2023-04-27T09:56:26.336Z,14.68
2023-04-27T09:57:26.324Z,14.91
2023-04-27T09:58:26.306Z,15.46
2023-04-27T09:59:26.290Z,17.11
2023-04-27T10:00:26.321Z,16.72
2023-04-27T10:01:26.343Z,16.47
2023-04-27T10:02:26.280Z,17.05
2023-04-27T10:03:26.306Z,16.96
2023-04-27T10:04:26.489Z,16.94
2023-04-27T10:05:26.314Z,17.05
2023-04-27T10:06:26.239Z,17.71
2023-04-27T10:07:26.233Z,17.20
2023-04-27T10:08:26.186Z,16.81
2023-04-27T10:09:26.181Z,16.29
2023-04-27T10:10:26.158Z,15.97
2023-04-27T10:11:26.282Z,15.57
2023-04-27T10:12:26.166Z,15.46
2023-04-27T10:13:26.264Z,15.61
2023-04-27T10:14:26.121Z,15.46
2023-04-27T10:15:26.109Z,15.46
2023-04-27T10:16:26.183Z,15.33
2023-04-27T10:17:26.149Z,15.82
2023-04-27T10:18:26.069Z,15.82
2023-04-27T10:19:26.086Z,15.55
2023-04-27T10:20:26.053Z,15.70
2023-04-27T10:21:26.052Z,16.42
2023-04-27T10:22:26.057Z,17.15
2023-04-27T10:23:26.044Z,17.45
2023-04-27T10:24:26.073Z,18.41
2023-04-27T10:25:26.029Z,19.12
2023-04-27T10:26:26.002Z,19.88
2023-04-27T10:27:26.004Z,20.51
2023-04-27T10:28:25.970Z,21.07
2023-04-27T10:29:25.971Z,20.32
2023-04-27T10:30:25.971Z,18.58
2023-04-27T10:31:25.997Z,19.44
2023-04-27T10:32:25.988Z,19.37
2023-04-27T10:33:25.925Z,18.58
2023-04-27T10:34:25.912Z,17.68
2023-04-27T10:35:25.903Z,17.30
2023-04-27T10:36:25.881Z,16.90
2023-04-27T10:37:25.903Z,16.47
2023-04-27T10:38:25.865Z,15.58
2023-04-27T10:39:36.010Z,15.14
2023-04-27T10:40:25.852Z,15.11
2023-04-27T10:41:25.863Z,15.51
2023-04-27T10:42:25.838Z,16.12
2023-04-27T10:43:25.838Z,16.21
2023-04-27T10:44:25.798Z,16.39
2023-04-27T10:45:26.195Z,16.53
2023-04-27T10:46:25.811Z,16.46
2023-04-27T10:47:25.892Z,16.36
2023-04-27T10:48:25.881Z,16.01
2023-04-27T10:49:25.850Z,15.64
2023-04-27T10:50:25.750Z,15.68
2023-04-27T10:51:25.756Z,15.67
2023-04-27T10:52:25.732Z,14.78
2023-04-27T10:53:25.724Z,13.90
2023-04-27T10:54:25.697Z,14.30
2023-04-27T10:55:25.704Z,15.28
2023-04-27T10:56:25.766Z,16.28
2023-04-27T10:57:25.698Z,16.20
2023-04-27T10:58:34.638Z,14.91
2023-04-27T10:59:25.708Z,14.73
2023-04-27T11:00:25.668Z,14.25
2023-04-27T11:01:25.768Z,14.17
2023-04-27T11:02:25.732Z,13.56
2023-04-27T11:03:25.814Z,13.63
2023-04-27T11:04:25.617Z,13.68
2023-04-27T11:05:25.622Z,13.83
2023-04-27T11:06:25.562Z,14.11
2023-04-27T11:07:25.588Z,16.10
2023-04-27T11:08:25.546Z,17.54
2023-04-27T11:09:25.547Z,18.31
2023-04-27T11:10:25.535Z,18.93
2023-04-27T11:11:25.585Z,19.26
2023-04-27T11:12:25.558Z,18.80
2023-04-27T11:13:25.503Z,17.63
2023-04-27T11:14:25.475Z,16.57
2023-04-27T11:15:25.485Z,16.12
2023-04-27T11:16:25.506Z,16.21
2023-04-27T11:17:25.483Z,16.47
2023-04-27T11:18:25.456Z,17.01
2023-04-27T11:19:25.468Z,17.65
2023-04-27T11:20:25.426Z,18.38
2023-04-27T11:21:25.416Z,18.93
2023-04-27T11:22:25.417Z,19.48
2023-04-27T11:23:25.403Z,19.89
2023-04-27T11:24:25.420Z,20.10
2023-04-27T11:25:25.372Z,20.74
2023-04-27T11:26:25.354Z,20.84
2023-04-27T11:27:25.444Z,20.88
2023-04-27T11:28:25.340Z,20.69
2023-04-27T11:29:25.325Z,21.02
2023-04-27T11:30:25.326Z,21.22
2023-04-27T11:31:25.351Z,21.32
2023-04-27T11:32:25.373Z,21.73
2023-04-27T11:33:25.286Z,21.58
2023-04-27T11:34:25.282Z,21.61
2023-04-27T11:35:25.274Z,21.29
2023-04-27T11:36:25.263Z,21.02
2023-04-27T11:37:25.261Z,21.15
2023-04-27T11:38:25.255Z,20.74
2023-04-27T11:39:25.307Z,18.40
2023-04-27T11:40:25.204Z,17.05
2023-04-27T11:41:25.193Z,15.76
2023-04-27T11:42:25.214Z,16.12
2023-04-27T11:43:25.186Z,17.33
2023-04-27T11:44:25.161Z,17.59
2023-04-27T11:45:25.180Z,18.45
2023-04-27T11:46:25.182Z,19.12
2023-04-27T11:47:25.205Z,19.63
2023-04-27T11:48:25.122Z,19.96
2023-04-27T11:49:25.116Z,20.10
2023-04-27T11:50:25.445Z,19.96
2023-04-27T11:51:25.090Z,19.33
2023-04-27T11:52:25.095Z,18.18
2023-04-27T11:53:25.063Z,17.34
2023-04-27T11:54:25.058Z,16.43
2023-04-27T11:55:25.062Z,15.73
2023-04-27T11:56:25.038Z,15.22
2023-04-27T11:57:25.035Z,14.69
2023-04-27T11:58:25.022Z,14.17
2023-04-27T11:59:25.049Z,13.68
2023-04-27T12:00:25.002Z,13.49
2023-04-27T12:01:36.988Z,13.49
2023-04-27T12:02:25.197Z,13.50
2023-04-27T12:03:25.106Z,13.79
2023-04-27T12:04:25.130Z,13.95
2023-04-27T12:05:25.020Z,13.95
2023-04-27T12:06:32.602Z,13.93
2023-04-27T12:07:24.936Z,14.25
2023-04-27T12:08:24.915Z,15.37
2023-04-27T12:09:24.896Z,16.68
2023-04-27T12:10:24.897Z,17.52
2023-04-27T12:11:24.869Z,17.56
2023-04-27T12:12:24.937Z,18.40
2023-04-27T12:13:24.861Z,18.84
2023-04-27T12:14:24.879Z,19.19
2023-04-27T12:15:24.823Z,19.58
2023-04-27T12:16:24.874Z,20.02
2023-04-27T12:17:24.830Z,20.29
2023-04-27T12:18:24.835Z,20.04
2023-04-27T12:19:24.788Z,20.40
2023-04-27T12:20:24.781Z,20.32
2023-04-27T12:21:24.762Z,19.88
2023-04-27T12:22:24.787Z,19.64
2023-04-27T12:23:24.758Z,19.84
2023-04-27T12:24:24.741Z,20.22
2023-04-27T12:25:24.734Z,20.34
2023-04-27T12:26:24.720Z,20.65
2023-04-27T12:27:24.712Z,20.50
2023-04-27T12:28:24.706Z,19.88
2023-04-27T12:29:24.679Z,19.21
2023-04-27T12:30:24.761Z,19.54
2023-04-27T12:31:26.948Z,19.88
2023-04-27T12:32:24.650Z,20.18
2023-04-27T12:33:24.649Z,20.44
2023-04-27T12:34:24.632Z,20.52
2023-04-27T12:35:24.654Z,20.58
2023-04-27T12:36:24.637Z,20.62
2023-04-27T12:37:26.805Z,20.51
2023-04-27T12:38:24.603Z,20.43
2023-04-27T12:39:24.568Z,19.37
2023-04-27T12:40:24.582Z,18.98
2023-04-27T12:41:24.552Z,18.00
2023-04-27T12:42:24.657Z,16.54
2023-04-27T12:43:24.538Z,14.89
2023-04-27T12:44:24.536Z,14.47
2023-04-27T12:45:24.514Z,14.22
2023-04-27T12:46:24.507Z,14.04
2023-04-27T12:48:24.502Z,13.85
2023-04-27T12:49:24.477Z,15.03
2023-04-27T12:50:24.466Z,16.16
2023-04-27T12:51:24.461Z,16.43
2023-04-27T12:52:24.452Z,16.36
2023-04-27T12:53:24.451Z,16.15
2023-04-27T12:54:24.422Z,15.79
2023-04-27T12:55:32.859Z,16.39
2023-04-27T12:56:24.408Z,17.15
2023-04-27T12:57:24.379Z,17.42
2023-04-27T12:58:24.403Z,18.16
2023-04-27T12:59:24.378Z,18.60
2023-04-27T13:00:24.352Z,18.11
2023-04-27T13:01:24.379Z,17.24
2023-04-27T13:02:24.454Z,17.14
2023-04-27T13:03:24.456Z,17.20
2023-04-27T13:04:24.508Z,17.09
2023-04-27T13:05:24.344Z,17.27
2023-04-27T13:06:24.294Z,17.70